createdAt,value
2023-08-11T00:00:08.972Z,20.10
2023-08-11T00:02:42.187Z,20.10
2023-08-11T00:05:09.591Z,20.10
2023-08-11T00:07:36.572Z,20.10
2023-08-11T00:10:04.305Z,20.10
2023-08-11T00:12:31.161Z,20.10
2023-08-11T00:14:58.089Z,20.00
2023-08-11T00:17:24.987Z,20.00
2023-08-11T00:19:52.194Z,19.90
2023-08-11T00:22:19.039Z,19.90
2023-08-11T00:24:45.902Z,19.90
2023-08-11T00:27:12.779Z,19.90
2023-08-11T00:29:39.664Z,19.90
2023-08-11T00:32:06.757Z,19.90
2023-08-11T00:34:33.805Z,19.90
2023-08-11T00:37:02.304Z,19.90
2023-08-11T00:39:29.491Z,19.90
2023-08-11T00:41:56.334Z,19.90
2023-08-11T00:44:23.329Z,19.90
2023-08-11T00:46:50.676Z,19.90
2023-08-11T00:49:18.238Z,20.00
2023-08-11T00:51:45.172Z,19.90
2023-08-11T00:54:12.192Z,19.90
2023-08-11T00:56:43.047Z,19.90
2023-08-11T00:59:11.084Z,19.90
2023-08-11T01:01:38.186Z,19.80
2023-08-11T01:04:06.678Z,19.80
2023-08-11T01:06:48.191Z,19.80
2023-08-11T01:09:48.183Z,19.80
2023-08-11T01:12:39.193Z,19.80
2023-08-11T01:15:30.818Z,19.80
2023-08-11T01:17:57.781Z,19.80
2023-08-11T01:20:24.942Z,19.80
2023-08-11T01:22:56.171Z,19.80
2023-08-11T01:25:23.338Z,19.80
2023-08-11T01:27:59.542Z,19.80
2023-08-11T01:30:27.670Z,19.80
2023-08-11T01:32:54.635Z,19.80
2023-08-11T01:35:29.804Z,19.80
2023-08-11T01:38:05.976Z,19.80
2023-08-11T01:40:32.891Z,19.70
2023-08-11T01:43:00.751Z,19.70
2023-08-11T01:45:28.313Z,19.70
2023-08-11T01:47:56.304Z,19.60
2023-08-11T01:50:23.347Z,19.60
2023-08-11T01:52:52.784Z,19.60
2023-08-11T01:55:19.661Z,19.60
2023-08-11T01:57:57.561Z,19.60
2023-08-11T02:00:26.241Z,19.60
2023-08-11T02:02:53.551Z,19.60
2023-08-11T02:05:21.177Z,19.60
2023-08-11T02:07:48.056Z,19.60
2023-08-11T02:10:15.029Z,19.60
2023-08-11T02:12:42.074Z,19.60
2023-08-11T02:15:09.878Z,19.60
2023-08-11T02:17:38.855Z,19.60
2023-08-11T02:20:21.844Z,19.60
2023-08-11T02:22:49.889Z,19.60
2023-08-11T02:25:17.261Z,19.60
2023-08-11T02:27:44.999Z,19.60
2023-08-11T02:30:12.927Z,19.60
2023-08-11T02:32:40.853Z,19.60
2023-08-11T02:35:08.341Z,19.60
2023-08-11T02:37:35.252Z,19.70
2023-08-11T02:40:02.215Z,19.70
2023-08-11T02:42:29.206Z,19.70
2023-08-11T02:44:56.196Z,19.70
2023-08-11T02:47:23.115Z,19.70
2023-08-11T02:49:52.295Z,19.80
2023-08-11T02:52:19.280Z,19.70
2023-08-11T02:54:46.620Z,19.70
2023-08-11T02:57:16.464Z,19.70
2023-08-11T02:59:45.782Z,19.80
2023-08-11T03:02:12.690Z,19.70
2023-08-11T03:04:39.691Z,19.80
2023-08-11T03:07:07.759Z,19.80
2023-08-11T03:09:36.290Z,19.70
2023-08-11T03:12:03.696Z,19.70
2023-08-11T03:14:30.641Z,19.70
2023-08-11T03:16:58.179Z,19.70
2023-08-11T03:19:25.577Z,19.60
2023-08-11T03:21:53.561Z,19.60
2023-08-11T03:24:20.725Z,19.70
2023-08-11T03:26:47.666Z,19.70
2023-08-11T03:29:14.673Z,19.70
2023-08-11T03:31:43.851Z,19.80
2023-08-11T03:34:11.199Z,19.80
2023-08-11T03:36:38.159Z,19.80
2023-08-11T03:39:05.439Z,19.80
2023-08-11T03:41:32.896Z,19.90
2023-08-11T03:44:01.004Z,19.90
2023-08-11T03:46:30.486Z,19.90
2023-08-11T03:48:58.451Z,19.90
2023-08-11T03:51:25.406Z,20.00
2023-08-11T03:53:52.327Z,20.00
2023-08-11T03:56:19.503Z,20.00
2023-08-11T03:58:47.668Z,20.00
2023-08-11T04:01:14.640Z,20.00
2023-08-11T04:03:43.797Z,20.00
2023-08-11T04:06:11.300Z,20.00
2023-08-11T04:08:39.348Z,20.00
2023-08-11T04:11:06.338Z,20.00
2023-08-11T04:13:33.782Z,20.00
2023-08-11T04:16:00.591Z,20.00
2023-08-11T04:18:27.550Z,20.00
2023-08-11T04:20:54.425Z,20.00
2023-08-11T04:23:21.441Z,20.00
2023-08-11T04:25:48.677Z,20.00
2023-08-11T04:28:16.324Z,20.00
2023-08-11T04:30:43.397Z,20.00
2023-08-11T04:33:13.621Z,20.00
2023-08-11T04:35:41.548Z,20.00
2023-08-11T04:38:08.483Z,20.00
2023-08-11T04:40:37.280Z,20.00
2023-08-11T04:43:05.336Z,20.00
2023-08-11T04:45:36.908Z,20.00
2023-08-11T04:48:04.298Z,20.00
2023-08-11T04:50:33.310Z,20.00
2023-08-11T04:53:00.448Z,20.00
2023-08-11T04:55:27.602Z,20.00
2023-08-11T04:57:55.650Z,20.00
2023-08-11T05:00:23.974Z,20.00
2023-08-11T05:02:53.532Z,20.00
2023-08-11T05:05:20.818Z,20.00
2023-08-11T05:07:47.788Z,20.00
2023-08-11T05:10:14.667Z,20.00
2023-08-11T05:12:42.594Z,20.10
2023-08-11T05:15:09.928Z,20.10
2023-08-11T05:17:37.612Z,20.10
2023-08-11T05:20:08.920Z,20.10
2023-08-11T05:22:36.561Z,20.10
2023-08-11T05:25:04.465Z,20.10
2023-08-11T05:27:31.570Z,20.10
2023-08-11T05:29:58.394Z,20.10
2023-08-11T05:32:25.366Z,20.10
2023-08-11T05:34:53.581Z,20.10
2023-08-11T05:37:20.508Z,20.20
2023-08-11T05:39:47.393Z,20.20
2023-08-11T05:42:14.381Z,20.20
2023-08-11T05:44:41.367Z,20.30
2023-08-11T05:47:09.406Z,20.30
2023-08-11T05:49:36.514Z,20.30
2023-08-11T05:52:03.554Z,20.30
2023-08-11T05:54:30.473Z,20.30
2023-08-11T05:56:58.709Z,20.40
2023-08-11T05:59:27.126Z,20.40
2023-08-11T06:01:54.097Z,20.40
2023-08-11T06:04:21.025Z,20.40
2023-08-11T06:06:47.941Z,20.40
2023-08-11T06:09:16.258Z,20.40
2023-08-11T06:11:43.191Z,20.40
2023-08-11T06:14:10.095Z,20.40
2023-08-11T06:16:37.057Z,20.40
2023-08-11T06:19:04.062Z,20.40
2023-08-11T06:21:31.120Z,20.40
2023-08-11T06:23:58.281Z,20.50
2023-08-11T06:26:25.163Z,20.50
2023-08-11T06:28:52.112Z,20.50
2023-08-11T06:31:20.113Z,20.50
2023-08-11T06:33:47.545Z,20.50
2023-08-11T06:36:14.725Z,20.50
2023-08-11T06:38:41.706Z,20.50
2023-08-11T06:41:11.731Z,20.40
2023-08-11T06:43:40.009Z,20.40
2023-08-11T06:46:07.677Z,20.40
2023-08-11T06:48:35.013Z,20.40
2023-08-11T06:51:01.913Z,20.40
2023-08-11T06:53:28.800Z,20.40
2023-08-11T06:55:55.758Z,20.40
2023-08-11T06:58:25.751Z,20.40
2023-08-11T07:00:53.540Z,20.40
2023-08-11T07:03:20.466Z,20.40
2023-08-11T07:05:47.366Z,20.40
2023-08-11T07:08:14.382Z,20.50
2023-08-11T07:10:41.231Z,20.60
2023-08-11T07:13:08.169Z,20.70
2023-08-11T07:15:37.371Z,20.70
2023-08-11T07:18:05.874Z,20.70
2023-08-11T07:20:32.830Z,20.80
2023-08-11T07:22:59.795Z,20.80
2023-08-11T07:25:26.644Z,20.80
2023-08-11T07:27:53.556Z,20.90
2023-08-11T07:30:20.650Z,20.90
2023-08-11T07:32:47.602Z,20.90
2023-08-11T07:35:15.099Z,21.00
2023-08-11T07:37:42.037Z,21.00
2023-08-11T07:40:09.512Z,21.00
2023-08-11T07:42:36.644Z,21.00
2023-08-11T07:45:03.714Z,21.10
2023-08-11T07:47:30.583Z,21.10
2023-08-11T07:49:58.315Z,21.00
2023-08-11T07:52:25.740Z,21.00
2023-08-11T07:54:52.729Z,21.00
2023-08-11T07:57:19.787Z,21.00
2023-08-11T07:59:46.804Z,21.10
2023-08-11T08:02:15.265Z,21.10
2023-08-11T08:04:43.295Z,21.20
2023-08-11T08:07:11.778Z,21.20
2023-08-11T08:09:39.993Z,21.40
2023-08-11T08:12:07.042Z,21.50
2023-08-11T08:14:33.865Z,21.60
2023-08-11T08:17:02.446Z,21.70
2023-08-11T08:19:29.682Z,21.80
2023-08-11T08:21:56.623Z,21.80
2023-08-11T08:24:23.584Z,21.90
2023-08-11T08:26:54.895Z,21.90
2023-08-11T08:29:22.174Z,21.90
2023-08-11T08:31:49.124Z,21.90
2023-08-11T08:34:16.257Z,21.90
2023-08-11T08:36:43.129Z,21.80
2023-08-11T08:39:10.085Z,21.80
2023-08-11T08:41:38.903Z,21.80
2023-08-11T08:44:06.824Z,21.90
2023-08-11T08:46:33.897Z,21.90
2023-08-11T08:49:09.976Z,21.90
2023-08-11T08:51:38.235Z,21.90
2023-08-11T08:54:05.370Z,21.90
2023-08-11T08:56:32.292Z,22.00
2023-08-11T08:58:59.132Z,22.10
2023-08-11T09:01:26.063Z,22.20
2023-08-11T09:03:53.203Z,22.30
2023-08-11T09:06:20.114Z,22.30
2023-08-11T09:08:47.941Z,22.30
2023-08-11T09:11:14.806Z,22.30
2023-08-11T09:13:44.940Z,22.30
2023-08-11T09:16:16.334Z,22.30
2023-08-11T09:18:44.318Z,22.30
2023-08-11T09:21:12.303Z,22.30
2023-08-11T09:23:39.262Z,22.20
2023-08-11T09:26:06.605Z,22.20
2023-08-11T09:28:36.050Z,22.30
2023-08-11T09:31:03.314Z,22.40
2023-08-11T09:33:31.345Z,22.40
2023-08-11T09:35:58.246Z,22.50
2023-08-11T09:38:26.319Z,22.60
2023-08-11T09:41:01.033Z,22.70
2023-08-11T09:43:29.160Z,22.80
2023-08-11T09:46:01.405Z,23.00
2023-08-11T09:48:28.500Z,23.10
2023-08-11T09:50:55.560Z,23.20
2023-08-11T09:53:24.792Z,23.30
2023-08-11T09:55:51.790Z,23.30
2023-08-11T09:58:19.405Z,23.30
2023-08-11T10:00:47.367Z,23.40
2023-08-11T10:03:16.769Z,23.50
2023-08-11T10:05:44.324Z,23.70
2023-08-11T10:08:14.147Z,23.80
2023-08-11T10:10:41.132Z,24.00
2023-08-11T10:13:14.153Z,24.20
2023-08-11T10:15:40.998Z,24.30
2023-08-11T10:18:09.766Z,24.40
2023-08-11T10:20:36.611Z,24.40
2023-08-11T10:23:03.829Z,24.50
2023-08-11T10:25:30.726Z,24.60
2023-08-11T10:27:57.717Z,24.70
2023-08-11T10:30:24.657Z,24.70
2023-08-11T10:32:57.800Z,24.80
2023-08-11T10:35:33.269Z,24.90
2023-08-11T10:38:00.465Z,25.00
2023-08-11T10:40:40.080Z,25.00
2023-08-11T10:43:07.157Z,25.00
2023-08-11T10:45:34.954Z,25.10
2023-08-11T10:48:08.045Z,25.10
2023-08-11T10:50:35.079Z,25.20
2023-08-11T10:53:08.766Z,25.10
2023-08-11T10:55:38.428Z,25.10
2023-08-11T10:58:17.684Z,25.10
2023-08-11T11:00:44.814Z,25.10
2023-08-11T11:03:12.564Z,25.20
2023-08-11T11:05:43.315Z,25.20
2023-08-11T11:08:10.146Z,25.30
2023-08-11T11:10:49.003Z,25.30
2023-08-11T11:13:17.930Z,25.10
2023-08-11T11:15:44.826Z,25.10
2023-08-11T11:18:13.015Z,25.10
2023-08-11T11:20:39.937Z,25.20
2023-08-11T11:23:06.997Z,25.30
2023-08-11T11:25:33.996Z,25.40
2023-08-11T11:28:00.955Z,25.50
2023-08-11T11:30:28.174Z,25.50
2023-08-11T11:32:55.188Z,25.70
2023-08-11T11:35:24.675Z,25.70
2023-08-11T11:37:52.150Z,25.70
2023-08-11T11:40:19.122Z,25.60
2023-08-11T11:42:47.861Z,25.50
2023-08-11T11:45:14.827Z,25.50
2023-08-11T11:47:41.989Z,25.50
2023-08-11T11:50:09.642Z,25.40
2023-08-11T11:52:37.964Z,25.30
2023-08-11T11:55:07.474Z,25.30
2023-08-11T11:57:35.022Z,25.30
2023-08-11T12:00:04.271Z,25.30
2023-08-11T12:02:41.419Z,25.30
2023-08-11T12:05:09.438Z,25.30
2023-08-11T12:07:37.431Z,25.10
2023-08-11T12:10:07.505Z,25.00
2023-08-11T12:12:34.629Z,24.90
2023-08-11T12:15:02.364Z,24.70
2023-08-11T12:17:36.428Z,24.60
2023-08-11T12:20:11.305Z,24.50
2023-08-11T12:22:38.356Z,24.40
2023-08-11T12:25:05.541Z,24.40
2023-08-11T12:27:32.601Z,24.40
2023-08-11T12:29:59.497Z,24.30
2023-08-11T12:32:26.455Z,24.30
2023-08-11T12:34:53.370Z,24.30
2023-08-11T12:37:20.223Z,24.30
2023-08-11T12:39:47.570Z,24.30
2023-08-11T12:42:14.533Z,24.40
2023-08-11T12:44:41.511Z,24.40
2023-08-11T12:47:08.365Z,24.60
2023-08-11T12:49:35.302Z,24.60
2023-08-11T12:52:02.204Z,24.70
2023-08-11T12:54:29.051Z,24.60
2023-08-11T12:56:55.930Z,24.40
2023-08-11T12:59:22.912Z,24.40
2023-08-11T13:01:50.087Z,24.30
2023-08-11T13:04:19.149Z,24.20
2023-08-11T13:06:46.066Z,24.10
2023-08-11T13:09:13.379Z,24.10
2023-08-11T13:11:40.272Z,24.10
2023-08-11T13:14:07.151Z,24.10
2023-08-11T13:16:36.752Z,24.10
2023-08-11T13:19:04.394Z,24.10
2023-08-11T13:21:32.243Z,24.20
2023-08-11T13:24:00.726Z,24.30
2023-08-11T13:26:27.948Z,24.40
2023-08-11T13:28:58.211Z,24.40
2023-08-11T13:31:25.276Z,24.50
2023-08-11T13:33:52.298Z,24.50
2023-08-11T13:36:19.182Z,24.50
2023-08-11T13:38:47.799Z,24.40
2023-08-11T13:41:14.753Z,24.50
2023-08-11T13:43:41.688Z,24.60
2023-08-11T13:46:08.847Z,24.70
2023-08-11T13:48:35.826Z,24.80
2023-08-11T13:51:04.653Z,24.90
2023-08-11T13:53:31.686Z,24.90
2023-08-11T13:55:58.617Z,25.00
2023-08-11T13:58:25.506Z,25.00
2023-08-11T14:00:52.632Z,25.00
2023-08-11T14:03:19.606Z,24.90
2023-08-11T14:05:46.516Z,24.90
2023-08-11T14:08:13.525Z,24.90
2023-08-11T14:10:40.543Z,24.90
2023-08-11T14:13:10.331Z,24.90
2023-08-11T14:15:38.692Z,24.80
2023-08-11T14:18:07.232Z,24.80
2023-08-11T14:20:34.669Z,24.70
2023-08-11T14:23:01.617Z,24.70
2023-08-11T14:25:28.575Z,24.80
2023-08-11T14:27:55.735Z,24.80
2023-08-11T14:30:22.795Z,24.80
2023-08-11T14:32:49.864Z,24.80
2023-08-11T14:35:16.871Z,24.80
2023-08-11T14:37:43.828Z,24.70
2023-08-11T14:40:11.679Z,24.70
2023-08-11T14:42:38.634Z,24.60
2023-08-11T14:45:06.195Z,24.80
2023-08-11T14:47:33.195Z,25.10
2023-08-11T14:50:00.289Z,25.50
2023-08-11T14:52:27.754Z,25.70
2023-08-11T14:54:54.595Z,25.80
2023-08-11T14:57:23.000Z,26.00
2023-08-11T14:59:51.615Z,26.20
2023-08-11T15:02:18.537Z,26.30
2023-08-11T15:04:45.502Z,26.40
2023-08-11T15:07:12.459Z,26.70
2023-08-11T15:09:40.022Z,27.10
2023-08-11T15:12:08.476Z,27.60
2023-08-11T15:14:35.776Z,28.00
2023-08-11T15:17:03.986Z,28.30
2023-08-11T15:19:31.443Z,28.40
2023-08-11T15:21:58.422Z,28.60
2023-08-11T15:24:25.313Z,28.80
2023-08-11T15:26:52.532Z,28.80
2023-08-11T15:29:19.363Z,28.70
2023-08-11T15:31:46.274Z,28.40
2023-08-11T15:34:13.206Z,28.00
2023-08-11T15:36:41.588Z,27.60
2023-08-11T15:39:08.645Z,27.20
2023-08-11T15:41:35.531Z,26.90
2023-08-11T15:44:02.494Z,26.80
2023-08-11T15:46:29.507Z,26.70
2023-08-11T15:48:56.431Z,26.50
2023-08-11T15:51:23.376Z,26.40
2023-08-11T15:53:50.420Z,26.20
2023-08-11T15:56:18.333Z,26.00
2023-08-11T15:58:45.209Z,25.80
2023-08-11T16:01:12.060Z,25.70
2023-08-11T16:03:39.098Z,25.70
2023-08-11T16:06:07.676Z,25.90
2023-08-11T16:08:34.521Z,26.30
2023-08-11T16:11:01.788Z,26.70
2023-08-11T16:13:29.148Z,27.00
2023-08-11T16:15:55.979Z,27.30
2023-08-11T16:18:23.456Z,27.50
2023-08-11T16:20:50.348Z,27.60
2023-08-11T16:23:17.360Z,27.70
2023-08-11T16:25:44.225Z,27.90
2023-08-11T16:28:11.418Z,28.20
2023-08-11T16:30:38.609Z,28.50
2023-08-11T16:33:05.735Z,28.70
2023-08-11T16:35:32.671Z,28.70
2023-08-11T16:37:59.645Z,28.60
2023-08-11T16:40:26.461Z,28.60
2023-08-11T16:42:53.404Z,28.60
2023-08-11T16:45:20.798Z,28.70
2023-08-11T16:47:48.823Z,28.70
2023-08-11T16:50:15.770Z,28.60
2023-08-11T16:52:42.773Z,28.50
2023-08-11T16:55:10.849Z,28.60
2023-08-11T16:57:37.829Z,28.60
2023-08-11T17:00:06.429Z,28.50
2023-08-11T17:02:33.453Z,28.50
2023-08-11T17:05:00.389Z,28.70
2023-08-11T17:07:27.308Z,28.80
2023-08-11T17:09:54.139Z,28.80
2023-08-11T17:12:22.267Z,28.50
2023-08-11T17:14:49.127Z,28.20
2023-08-11T17:17:16.200Z,27.70
2023-08-11T17:19:43.095Z,27.30
2023-08-11T17:22:11.935Z,27.00
2023-08-11T17:24:43.514Z,26.80
2023-08-11T17:27:10.557Z,26.70
2023-08-11T17:29:37.540Z,26.40
2023-08-11T17:32:07.072Z,26.20
2023-08-11T17:34:35.877Z,25.90
2023-08-11T17:37:07.484Z,25.70
2023-08-11T17:39:35.401Z,25.40
2023-08-11T17:42:03.438Z,25.10
2023-08-11T17:44:30.523Z,24.90
2023-08-11T17:46:57.528Z,24.70
2023-08-11T17:49:24.468Z,24.60
2023-08-11T17:51:51.409Z,24.40
2023-08-11T17:54:19.660Z,24.40
2023-08-11T17:56:46.504Z,24.50
2023-08-11T17:59:13.434Z,24.60
2023-08-11T18:01:40.320Z,24.60
2023-08-11T18:04:08.138Z,24.60
2023-08-11T18:06:35.430Z,24.40
2023-08-11T18:09:04.638Z,24.30
2023-08-11T18:11:34.221Z,24.10
2023-08-11T18:14:01.250Z,24.00
2023-08-11T18:16:30.560Z,23.80
2023-08-11T18:18:58.865Z,23.60
2023-08-11T18:21:25.810Z,23.50
2023-08-11T18:23:52.641Z,23.40
2023-08-11T18:26:21.806Z,23.30
2023-08-11T18:28:48.790Z,23.20
2023-08-11T18:31:15.782Z,23.10
2023-08-11T18:33:42.766Z,23.10
2023-08-11T18:36:09.707Z,23.00
2023-08-11T18:38:36.571Z,22.90
2023-08-11T18:41:03.988Z,22.80
2023-08-11T18:43:31.449Z,22.70
2023-08-11T18:45:58.380Z,22.60
2023-08-11T18:48:25.424Z,22.50
2023-08-11T18:50:52.380Z,22.50
2023-08-11T18:53:19.385Z,22.40
2023-08-11T18:55:46.305Z,22.30
2023-08-11T18:58:13.265Z,22.20
2023-08-11T19:00:40.685Z,22.20
2023-08-11T19:03:07.860Z,22.10
2023-08-11T19:05:35.306Z,22.10
2023-08-11T19:08:02.518Z,22.00
2023-08-11T19:10:29.891Z,22.00
2023-08-11T19:12:56.931Z,21.90
2023-08-11T19:15:24.119Z,21.90
2023-08-11T19:17:51.169Z,21.80
2023-08-11T19:20:18.376Z,21.80
2023-08-11T19:22:45.251Z,21.70
2023-08-11T19:25:12.654Z,21.60
2023-08-11T19:27:39.821Z,21.60
2023-08-11T19:30:08.098Z,21.60
2023-08-11T19:32:35.977Z,21.50
2023-08-11T19:35:03.787Z,21.50
2023-08-11T19:37:30.800Z,21.50
2023-08-11T19:39:57.669Z,21.40
2023-08-11T19:42:24.533Z,21.40
2023-08-11T19:44:51.557Z,21.30
2023-08-11T19:47:18.474Z,21.30
2023-08-11T19:49:46.446Z,21.20
2023-08-11T19:52:14.275Z,21.20
2023-08-11T19:54:41.837Z,21.10
2023-08-11T19:57:08.976Z,21.10
2023-08-11T19:59:36.391Z,21.10
2023-08-11T20:02:03.714Z,21.10
2023-08-11T20:04:30.785Z,21.00
2023-08-11T20:06:57.635Z,21.00
2023-08-11T20:09:24.594Z,21.00
2023-08-11T20:11:51.965Z,20.90
2023-08-11T20:14:21.624Z,20.90
2023-08-11T20:16:49.901Z,20.80
2023-08-11T20:19:16.921Z,20.80
2023-08-11T20:21:43.864Z,20.70
2023-08-11T20:24:10.810Z,20.70
2023-08-11T20:26:37.884Z,20.60
2023-08-11T20:29:05.177Z,20.60
2023-08-11T20:31:33.948Z,20.60
2023-08-11T20:34:01.287Z,20.60
2023-08-11T20:36:28.249Z,20.60
2023-08-11T20:38:55.178Z,20.60
2023-08-11T20:41:22.144Z,20.50
2023-08-11T20:43:49.548Z,20.50
2023-08-11T20:46:16.800Z,20.50
2023-08-11T20:48:43.909Z,20.40
2023-08-11T20:51:11.425Z,20.40
2023-08-11T20:53:38.622Z,20.40
2023-08-11T20:56:05.562Z,20.40
2023-08-11T20:58:32.489Z,20.40
2023-08-11T21:00:59.525Z,20.40
2023-08-11T21:03:26.703Z,20.30
2023-08-11T21:05:56.726Z,20.30
2023-08-11T21:08:23.656Z,20.20
2023-08-11T21:10:50.724Z,20.20
2023-08-11T21:13:18.152Z,20.20
2023-08-11T21:15:45.129Z,20.10
2023-08-11T21:18:12.278Z,20.10
2023-08-11T21:20:39.523Z,20.10
2023-08-11T21:23:06.486Z,20.10
2023-08-11T21:25:34.458Z,20.10
2023-08-11T21:28:01.360Z,20.10
2023-08-11T21:30:28.286Z,20.00
2023-08-11T21:32:55.224Z,20.00
2023-08-11T21:35:22.442Z,19.90
2023-08-11T21:37:50.142Z,19.90
2023-08-11T21:40:17.363Z,19.90
2023-08-11T21:42:44.820Z,19.90
2023-08-11T21:45:11.995Z,19.80
2023-08-11T21:47:40.560Z,19.80
2023-08-11T21:50:08.200Z,19.80
2023-08-11T21:52:35.138Z,19.80
2023-08-11T21:55:02.199Z,19.70
2023-08-11T21:57:29.651Z,19.70
2023-08-11T21:59:56.516Z,19.70
2023-08-11T22:02:23.464Z,19.60
2023-08-11T22:04:50.373Z,19.60
2023-08-11T22:07:17.311Z,19.60
2023-08-11T22:09:44.339Z,19.60
2023-08-11T22:12:14.478Z,19.50
2023-08-11T22:14:41.364Z,19.50
2023-08-11T22:17:08.465Z,19.50
2023-08-11T22:19:36.732Z,19.40
2023-08-11T22:22:06.637Z,19.40
2023-08-11T22:24:41.226Z,19.40
2023-08-11T22:27:12.239Z,19.30
2023-08-11T22:29:39.625Z,19.30
2023-08-11T22:32:06.655Z,19.30
2023-08-11T22:34:33.539Z,19.20
2023-08-11T22:37:00.428Z,19.20
2023-08-11T22:39:27.308Z,19.30
2023-08-11T22:41:54.197Z,19.30
2023-08-11T22:44:21.081Z,19.30
2023-08-11T22:46:48.092Z,19.20
2023-08-11T22:49:15.123Z,19.30
2023-08-11T22:51:42.102Z,19.20
2023-08-11T22:54:08.974Z,19.20
2023-08-11T22:56:35.856Z,19.20
2023-08-11T22:59:02.796Z,19.30
2023-08-11T23:01:30.861Z,19.20
2023-08-11T23:03:57.838Z,19.20
2023-08-11T23:06:24.821Z,19.20
2023-08-11T23:08:51.775Z,19.20
2023-08-11T23:11:18.768Z,19.10
2023-08-11T23:13:45.802Z,19.20
2023-08-11T23:16:12.890Z,19.10
2023-08-11T23:18:39.787Z,19.20
2023-08-11T23:21:06.700Z,19.10
2023-08-11T23:23:33.610Z,19.10
2023-08-11T23:26:00.615Z,19.10
2023-08-11T23:28:29.288Z,19.10
2023-08-11T23:30:56.329Z,19.10
2023-08-11T23:33:23.310Z,19.10
2023-08-11T23:35:50.431Z,19.10
2023-08-11T23:38:17.253Z,19.10
2023-08-11T23:40:44.075Z,19.10
2023-08-11T23:43:10.992Z,19.10
2023-08-11T23:45:37.953Z,19.10
2023-08-11T23:48:06.458Z,19.10
2023-08-11T23:50:33.893Z,19.10
2023-08-11T23:53:01.535Z,19.10
2023-08-11T23:55:28.551Z,19.10
2023-08-11T23:57:55.718Z,19.00
